Time;durP1;ratioP1;P1;durP2;ratioP2;P2;SDS_P1;SDS_P2;PMS_P1;PMS_P2;Temp;Humidity;BMP_temperature;BMP_pressure;BME280_temperature;BME280_humidity;BME280_pressure;Samples;Min_cycle;Max_cycle;Signal;HPM_P1;HPM_P2
2023/04/16 00:00:21;;;;;;;;;6.67;5.67;;;;;8.46;100.00;101912.72;4985465;28;44823;-81
2023/04/16 00:02:46;;;;;;;;;10.00;6.67;;;;;8.46;100.00;101913.56;4987294;28;45722;-80
2023/04/16 00:05:13;;;;;;;;;10.67;7.00;;;;;8.43;100.00;101915.75;4982946;28;45825;-80
2023/04/16 00:07:39;;;;;;;;;7.00;7.00;;;;;8.41;100.00;101915.03;4983806;28;45270;-81
2023/04/16 00:10:07;;;;;;;;;8.00;6.33;;;;;8.40;100.00;101911.47;4977351;28;45389;-80
2023/04/16 00:12:33;;;;;;;;;6.00;5.00;;;;;8.34;100.00;101913.97;4971524;28;45418;-81
2023/04/16 00:14:58;;;;;;;;;8.00;8.00;;;;;8.31;100.00;101909.72;4962135;28;45410;-80
2023/04/16 00:17:24;;;;;;;;;7.00;5.67;;;;;8.20;100.00;101899.94;4983998;28;45518;-80
2023/04/16 00:19:49;;;;;;;;;8.00;8.00;;;;;8.26;100.00;101902.03;4982219;28;45523;-80
2023/04/16 00:22:15;;;;;;;;;8.00;6.00;;;;;8.25;100.00;101916.69;4984291;28;45449;-81
2023/04/16 00:24:41;;;;;;;;;6.33;4.67;;;;;8.12;100.00;101898.03;4983966;28;45516;-81
2023/04/16 00:27:06;;;;;;;;;5.00;5.00;;;;;8.25;100.00;101918.59;4974034;28;48037;-81
2023/04/16 00:29:33;;;;;;;;;9.67;7.00;;;;;8.22;100.00;101917.03;4971788;28;45546;-81
2023/04/16 00:31:59;;;;;;;;;4.67;4.67;;;;;8.20;100.00;101910.84;4985080;28;45421;-80
2023/04/16 00:34:24;;;;;;;;;9.33;7.67;;;;;8.19;100.00;101917.38;4984516;28;45444;-82
2023/04/16 00:36:49;;;;;;;;;9.00;6.00;;;;;8.16;100.00;101925.88;4982727;28;46123;-81
2023/04/16 00:39:15;;;;;;;;;5.33;5.33;;;;;8.08;100.00;101907.59;4987002;28;45468;-83
2023/04/16 00:41:42;;;;;;;;;8.33;7.00;;;;;8.12;100.00;101919.88;4966178;28;45850;-81
2023/04/16 00:44:07;;;;;;;;;5.00;5.00;;;;;8.14;100.00;101925.19;4976700;28;45698;-80
2023/04/16 00:46:34;;;;;;;;;7.33;6.00;;;;;8.13;100.00;101918.88;4981599;28;45739;-80
2023/04/16 00:49:00;;;;;;;;;9.67;8.00;;;;;8.10;100.00;101921.94;4988151;28;45529;-80
2023/04/16 00:51:25;;;;;;;;;8.33;7.33;;;;;8.08;100.00;101921.25;4983205;28;45591;-79
2023/04/16 00:53:52;;;;;;;;;11.00;9.33;;;;;8.01;100.00;101902.91;4958436;28;47102;-81
2023/04/16 00:56:21;;;;;;;;;11.33;8.33;;;;;7.99;100.00;101922.19;4983465;28;45884;-81
2023/04/16 00:58:46;;;;;;;;;20.67;17.67;;;;;7.96;100.00;101911.59;4957789;28;45473;-81
2023/04/16 01:01:13;;;;;;;;;13.33;11.33;;;;;7.92;100.00;101916.56;4967724;28;45682;-81
2023/04/16 01:03:42;;;;;;;;;12.33;11.67;;;;;7.88;100.00;101914.31;4973275;28;45446;-80
2023/04/16 01:06:08;;;;;;;;;11.33;9.00;;;;;7.76;100.00;101894.59;4970262;28;47277;-81
2023/04/16 01:08:34;;;;;;;;;12.00;9.33;;;;;7.78;100.00;101914.41;4973971;28;45741;-80
2023/04/16 01:10:59;;;;;;;;;14.33;13.33;;;;;7.76;100.00;101914.56;4974692;28;45846;-79
2023/04/16 01:13:24;;;;;;;;;10.33;10.33;;;;;7.71;100.00;101919.66;4974397;28;45791;-81
2023/04/16 01:15:50;;;;;;;;;14.33;13.00;;;;;7.64;100.00;101915.88;4974421;28;45439;-78
2023/04/16 01:18:18;;;;;;;;;15.33;14.33;;;;;7.62;100.00;101917.03;4974158;28;45671;-79
2023/04/16 01:20:44;;;;;;;;;18.67;14.00;;;;;7.55;100.00;101923.13;4974196;28;45404;-80
2023/04/16 01:23:10;;;;;;;;;13.33;12.67;;;;;7.52;100.00;101909.81;4980308;28;45763;-80
2023/04/16 01:25:36;;;;;;;;;14.00;13.33;;;;;7.45;100.00;101913.34;4961644;28;46063;-81
2023/04/16 01:28:01;;;;;;;;;16.33;13.67;;;;;7.46;100.00;101904.16;4989704;28;45518;-82
2023/04/16 01:30:27;;;;;;;;;17.00;12.67;;;;;7.43;100.00;101908.06;4989988;28;45863;-80
2023/04/16 01:32:52;;;;;;;;;17.67;14.00;;;;;7.35;100.00;101897.06;4973561;28;45643;-82
2023/04/16 01:35:18;;;;;;;;;14.00;12.33;;;;;7.36;100.00;101905.09;4958847;28;46617;-81
2023/04/16 01:37:43;;;;;;;;;17.67;15.33;;;;;7.33;100.00;101912.75;4953299;28;45618;-81
2023/04/16 01:40:09;;;;;;;;;16.33;15.00;;;;;7.29;100.00;101906.75;4951468;28;45817;-82
2023/04/16 01:42:36;;;;;;;;;14.67;14.67;;;;;7.27;100.00;101916.09;4978974;28;45449;-81
2023/04/16 01:45:01;;;;;;;;;13.33;13.00;;;;;7.25;100.00;101919.84;4985213;28;46619;-80
2023/04/16 01:47:27;;;;;;;;;5.33;5.33;;;;;7.19;100.00;101922.38;4984583;28;45710;-81
2023/04/16 01:49:52;;;;;;;;;18.33;14.33;;;;;7.18;100.00;101923.38;4985686;28;45826;-81
2023/04/16 01:52:18;;;;;;;;;12.33;12.00;;;;;7.17;100.00;101925.25;4973916;28;45444;-81
2023/04/16 01:54:43;;;;;;;;;17.00;14.00;;;;;7.12;100.00;101924.84;4975537;28;45718;-80
2023/04/16 01:57:08;;;;;;;;;13.00;13.00;;;;;7.10;100.00;101926.88;4974135;28;45790;-80
2023/04/16 01:59:34;;;;;;;;;14.33;13.00;;;;;7.07;100.00;101924.47;4978311;28;45451;-81
2023/04/16 02:02:13;;;;;;;;;17.00;13.00;;;;;7.02;100.00;101930.41;4962609;28;45991;-82
2023/04/16 02:04:40;;;;;;;;;12.00;12.00;;;;;7.03;100.00;101933.97;4973587;28;45576;-81
2023/04/16 02:07:06;;;;;;;;;17.67;15.67;;;;;7.01;100.00;101938.75;4977309;28;45454;-81
2023/04/16 02:09:36;;;;;;;;;15.00;14.00;;;;;7.01;100.00;101944.19;4984964;28;45592;-82
2023/04/16 02:12:02;;;;;;;;;14.33;9.67;;;;;7.03;100.00;101943.00;4967709;28;45808;-81
2023/04/16 02:14:28;;;;;;;;;15.33;14.00;;;;;7.01;100.00;101944.19;4974162;28;46684;-82
2023/04/16 02:16:53;;;;;;;;;15.67;11.00;;;;;7.00;100.00;101948.78;4968090;28;45468;-81
2023/04/16 02:19:19;;;;;;;;;13.67;12.67;;;;;7.01;100.00;101939.59;4984671;28;45878;-80
2023/04/16 02:21:45;;;;;;;;;11.67;10.00;;;;;6.98;100.00;101934.44;4980736;28;45864;-82
2023/04/16 02:24:10;;;;;;;;;15.00;12.67;;;;;6.99;100.00;101936.16;4956271;28;46874;-81
2023/04/16 02:26:36;;;;;;;;;12.67;11.33;;;;;6.81;100.00;101908.91;4959313;28;45658;-83
2023/04/16 02:29:01;;;;;;;;;11.67;10.33;;;;;6.99;100.00;101929.84;4972354;28;45386;-81
2023/04/16 02:31:27;;;;;;;;;13.33;10.67;;;;;6.98;100.00;101933.59;4975463;28;45354;-81
2023/04/16 02:33:53;;;;;;;;;10.00;10.00;;;;;6.98;100.00;101939.91;4973642;28;45902;-82
2023/04/16 02:36:18;;;;;;;;;12.00;11.67;;;;;6.96;100.00;101936.47;4971964;28;45318;-81
2023/04/16 02:38:44;;;;;;;;;14.00;14.00;;;;;6.94;100.00;101943.09;4958796;28;45579;-80
2023/04/16 02:41:09;;;;;;;;;12.00;11.00;;;;;6.91;100.00;101948.88;4983422;28;45671;-80
2023/04/16 02:43:35;;;;;;;;;15.00;12.67;;;;;6.88;100.00;101947.28;4978717;28;45841;-80
2023/04/16 02:46:00;;;;;;;;;14.33;13.33;;;;;6.87;100.00;101948.28;4977399;28;45436;-81
2023/04/16 02:48:26;;;;;;;;;11.67;9.67;;;;;6.83;100.00;101941.47;4973359;28;45786;-80
2023/04/16 02:50:51;;;;;;;;;14.33;11.33;;;;;6.82;100.00;101937.84;4984131;28;45749;-73
2023/04/16 02:53:16;;;;;;;;;12.67;12.33;;;;;6.78;100.00;101939.19;4952465;28;47405;-74
2023/04/16 02:55:51;;;;;;;;;12.00;10.33;;;;;6.77;100.00;101936.63;4970115;28;45807;-74
2023/04/16 02:58:17;;;;;;;;;19.67;14.67;;;;;6.78;100.00;101944.66;4958550;28;45746;-74
2023/04/16 03:00:43;;;;;;;;;13.33;12.67;;;;;6.76;100.00;101941.22;4971776;28;45798;-73
2023/04/16 03:03:08;;;;;;;;;14.33;13.67;;;;;6.77;100.00;101931.19;4970783;28;45913;-74
2023/04/16 03:05:34;;;;;;;;;15.33;13.33;;;;;6.77;100.00;101942.94;4978338;28;45643;-74
2023/04/16 03:07:59;;;;;;;;;15.00;14.00;;;;;6.74;100.00;101936.91;4970882;28;45678;-75
2023/04/16 03:10:25;;;;;;;;;14.00;11.00;;;;;6.72;100.00;101946.13;4973813;28;45391;-75
2023/04/16 03:12:50;;;;;;;;;14.33;11.67;;;;;6.71;100.00;101943.56;4971234;28;45847;-75
2023/04/16 03:15:16;;;;;;;;;19.33;14.67;;;;;6.75;100.00;101952.25;4953583;28;45485;-73
2023/04/16 03:17:41;;;;;;;;;14.00;12.00;;;;;6.59;100.00;101918.38;4974965;28;45956;-74
2023/04/16 03:20:08;;;;;;;;;16.67;13.00;;;;;6.74;100.00;101956.00;4982287;28;45756;-73
2023/04/16 03:22:33;;;;;;;;;11.67;11.67;;;;;6.76;100.00;101957.56;4970977;28;45489;-73
2023/04/16 03:24:58;;;;;;;;;9.33;9.33;;;;;6.75;100.00;101955.88;4952536;28;45878;-73
2023/04/16 03:27:24;;;;;;;;;15.00;12.00;;;;;6.74;100.00;101956.88;4971168;28;45617;-73
2023/04/16 03:29:52;;;;;;;;;12.33;12.33;;;;;6.73;100.00;101955.16;4957869;28;46076;-73
2023/04/16 03:32:18;;;;;;;;;13.67;12.00;;;;;6.69;100.00;101948.28;4954999;28;46284;-73
2023/04/16 03:34:43;;;;;;;;;7.67;7.67;;;;;6.57;100.00;101930.44;4966364;28;45542;-74
2023/04/16 03:37:10;;;;;;;;;14.67;11.00;;;;;6.68;100.00;101950.16;4974493;28;45345;-75
2023/04/16 03:39:36;;;;;;;;;12.00;10.00;;;;;6.66;100.00;101948.59;4950503;28;46301;-73
2023/04/16 03:42:02;;;;;;;;;14.00;11.00;;;;;6.61;100.00;101942.75;4974753;28;45820;-76
2023/04/16 03:44:28;;;;;;;;;15.33;12.00;;;;;6.62;100.00;101948.06;4979809;28;45789;-73
2023/04/16 03:46:53;;;;;;;;;12.00;12.00;;;;;6.60;100.00;101951.94;4971109;28;45388;-74
2023/04/16 03:49:19;;;;;;;;;16.67;13.00;;;;;6.43;100.00;101926.38;4983736;28;45507;-74
2023/04/16 03:51:45;;;;;;;;;14.00;12.00;;;;;6.54;100.00;101943.38;4976027;28;45550;-75
2023/04/16 03:54:11;;;;;;;;;15.67;13.00;;;;;6.56;100.00;101950.50;4954677;28;45823;-75
2023/04/16 03:56:38;;;;;;;;;12.33;9.67;;;;;6.47;100.00;101950.44;4970273;28;45799;-75
2023/04/16 03:59:03;;;;;;;;;17.00;15.00;;;;;6.39;100.00;101933.97;4954908;28;46266;-75
2023/04/16 04:01:29;;;;;;;;;13.00;12.00;;;;;6.47;100.00;101952.31;4954887;28;47137;-77
2023/04/16 04:03:54;;;;;;;;;17.00;13.00;;;;;6.44;100.00;101950.75;4980740;28;45446;-79
2023/04/16 04:06:20;;;;;;;;;12.33;11.00;;;;;6.43;100.00;101956.34;4984828;28;45451;-78
2023/04/16 04:08:48;;;;;;;;;14.33;11.67;;;;;6.44;100.00;101955.34;4971692;28;45711;-78
2023/04/16 04:11:13;;;;;;;;;10.00;9.67;;;;;6.40;100.00;101960.22;4953651;28;46306;-77
2023/04/16 04:13:39;;;;;;;;;15.67;13.33;;;;;6.35;100.00;101954.38;4977571;28;45987;-75
2023/04/16 04:16:05;;;;;;;;;13.33;12.33;;;;;6.35;100.00;101966.13;4962675;28;45770;-74
2023/04/16 04:18:30;;;;;;;;;13.33;12.00;;;;;6.37;100.00;101968.69;4978298;28;46363;-79
2023/04/16 04:20:56;;;;;;;;;16.33;12.33;;;;;6.29;100.00;101963.16;4978440;28;45460;-80
2023/04/16 04:23:22;;;;;;;;;14.00;12.00;;;;;6.26;100.00;101952.56;4968603;28;45825;-74
2023/04/16 04:25:48;;;;;;;;;12.00;12.00;;;;;6.33;100.00;101972.72;4955161;28;45637;-76
2023/04/16 04:28:14;;;;;;;;;15.00;15.00;;;;;6.29;100.00;101977.63;4971554;28;45471;-79
2023/04/16 04:30:40;;;;;;;;;9.00;7.33;;;;;6.29;100.00;101977.63;4959212;28;47416;-80
2023/04/16 04:33:05;;;;;;;;;14.33;13.67;;;;;6.28;100.00;101978.63;4983445;28;45424;-78
2023/04/16 04:35:34;;;;;;;;;16.67;10.67;;;;;6.28;100.00;101981.34;4967587;28;45374;-74
2023/04/16 04:38:00;;;;;;;;;14.33;11.67;;;;;6.26;100.00;101985.25;4983159;28;45972;-74
2023/04/16 04:40:26;;;;;;;;;10.00;10.00;;;;;6.12;100.00;101964.78;4990231;28;45865;-74
2023/04/16 04:42:51;;;;;;;;;13.67;12.67;;;;;6.20;100.00;101973.09;4979783;28;45824;-76
2023/04/16 04:45:18;;;;;;;;;14.33;12.00;;;;;6.28;100.00;101977.78;4972470;28;46390;-75
2023/04/16 04:47:44;;;;;;;;;15.33;14.33;;;;;6.13;100.00;101956.47;4963192;28;46571;-80
2023/04/16 04:50:09;;;;;;;;;14.67;11.67;;;;;6.34;100.00;101983.47;4984877;28;46747;-79
2023/04/16 04:52:35;;;;;;;;;18.33;14.00;;;;;6.35;100.00;101981.63;4964054;28;45476;-81
2023/04/16 04:55:00;;;;;;;;;15.00;13.33;;;;;6.44;100.00;101994.34;4961219;28;45636;-79
2023/04/16 04:57:26;;;;;;;;;22.67;16.00;;;;;6.43;100.00;101989.88;4978473;28;47101;-79
2023/04/16 04:59:51;;;;;;;;;21.00;16.00;;;;;6.40;100.00;101982.00;4974362;28;45923;-80
2023/04/16 05:02:20;;;;;;;;;20.67;16.33;;;;;6.54;100.00;101984.25;4972974;28;45722;-80
2023/04/16 05:04:47;;;;;;;;;19.00;15.33;;;;;6.44;100.00;101958.91;4981554;28;45575;-76
2023/04/16 05:07:16;;;;;;;;;21.33;16.33;;;;;6.72;100.00;101989.75;4980398;28;45509;-77
2023/04/16 05:09:43;;;;;;;;;19.67;17.67;;;;;6.82;100.00;101986.94;4977265;28;45730;-76
2023/04/16 05:12:12;;;;;;;;;22.00;22.00;;;;;6.94;100.00;101998.47;4976121;28;45571;-77
2023/04/16 05:14:46;;;;;;;;;27.00;21.00;;;;;7.02;100.00;101984.06;4984701;28;45771;-77
2023/04/16 05:17:12;;;;;;;;;22.33;14.67;;;;;7.15;100.00;101995.47;4984990;28;45781;-78
2023/04/16 05:19:37;;;;;;;;;23.67;18.67;;;;;7.24;100.00;101999.13;4985158;28;47248;-77
2023/04/16 05:22:03;;;;;;;;;23.33;21.33;;;;;7.29;100.00;101983.16;4981230;28;45825;-81
2023/04/16 05:24:28;;;;;;;;;26.00;21.33;;;;;7.57;100.00;102008.50;4990863;28;46115;-79
2023/04/16 05:26:54;;;;;;;;;23.67;20.67;;;;;7.52;100.00;101991.72;4989226;28;45675;-79
2023/04/16 05:29:19;;;;;;;;;20.33;17.33;;;;;7.87;100.00;102008.19;4984974;28;46353;-81
2023/04/16 05:31:45;;;;;;;;;28.00;23.33;;;;;8.25;100.00;102020.56;4958311;28;45682;-83
2023/04/16 05:34:10;;;;;;;;;23.33;20.33;;;;;8.51;100.00;102006.00;4985563;28;45765;-80
2023/04/16 05:36:36;;;;;;;;;25.00;18.00;;;;;8.97;100.00;102014.72;4964394;28;45890;-80
2023/04/16 05:39:01;;;;;;;;;24.67;19.67;;;;;9.30;100.00;101987.41;4957937;28;47301;-79
2023/04/16 05:41:27;;;;;;;;;26.33;22.33;;;;;10.12;100.00;102024.88;4970293;28;45425;-82
2023/04/16 05:43:52;;;;;;;;;24.67;22.00;;;;;10.83;100.00;102029.63;4986435;28;45778;-79
2023/04/16 05:46:18;;;;;;;;;32.67;22.67;;;;;11.43;100.00;102017.91;4989294;28;45268;-79
2023/04/16 05:48:43;;;;;;;;;30.00;24.33;;;;;12.00;100.00;102029.50;4974236;28;46569;-80
2023/04/16 05:51:09;;;;;;;;;28.33;23.33;;;;;12.57;100.00;102025.25;4968015;28;45958;-81
2023/04/16 05:53:37;;;;;;;;;26.00;23.00;;;;;13.12;100.00;102034.00;4970623;28;45762;-81
2023/04/16 05:56:02;;;;;;;;;30.00;25.67;;;;;13.58;100.00;102022.66;4974907;28;45517;-81
2023/04/16 05:58:28;;;;;;;;;26.00;22.00;;;;;13.94;100.00;102021.69;4972960;28;45710;-80
2023/04/16 06:00:56;;;;;;;;;32.67;24.67;;;;;14.18;100.00;102016.78;4976012;28;45544;-85
2023/04/16 06:03:22;;;;;;;;;20.00;17.67;;;;;14.70;100.00;102019.22;4971248;28;45575;-79
2023/04/16 06:05:47;;;;;;;;;26.67;22.00;;;;;15.35;100.00;102031.56;4975093;28;45438;-79
2023/04/16 06:08:12;;;;;;;;;35.00;28.33;;;;;15.84;100.00;102031.44;4974688;28;46294;-79
2023/04/16 06:10:38;;;;;;;;;28.67;27.33;;;;;16.47;100.00;102035.66;4968850;28;45495;-79
2023/04/16 06:13:03;;;;;;;;;22.50;18.50;;;;;16.96;100.00;102034.22;4969360;28;45711;-80
2023/04/16 06:15:29;;;;;;;;;24.67;20.67;;;;;17.41;100.00;102036.97;4969478;28;46022;-80
2023/04/16 06:17:55;;;;;;;;;21.33;18.67;;;;;17.74;100.00;102035.00;4955205;28;46036;-80
2023/04/16 06:20:28;;;;;;;;;26.00;15.67;;;;;17.86;100.00;102037.91;4970392;28;45914;-82
2023/04/16 06:22:54;;;;;;;;;21.67;18.33;;;;;18.05;100.00;102036.06;4970078;28;45724;-82
2023/04/16 06:25:20;;;;;;;;;21.00;18.00;;;;;18.22;100.00;102026.09;4974198;28;45850;-82
2023/04/16 06:27:45;;;;;;;;;15.33;13.33;;;;;18.23;100.00;102036.09;4959132;28;46903;-79
2023/04/16 06:30:12;;;;;;;;;16.33;16.33;;;;;18.27;100.00;102033.75;4971749;28;45919;-80
2023/04/16 06:32:38;;;;;;;;;20.33;18.00;;;;;18.57;100.00;102030.22;4968545;28;46274;-81
2023/04/16 06:35:05;;;;;;;;;20.33;17.33;;;;;18.87;100.00;102021.97;4969463;28;45474;-81
2023/04/16 06:37:30;;;;;;;;;29.00;22.00;;;;;19.48;100.00;102044.25;4955246;28;45882;-83
2023/04/16 06:39:56;;;;;;;;;35.00;28.00;;;;;20.06;100.00;102034.34;4975324;28;45716;-81
2023/04/16 06:42:22;;;;;;;;;25.00;20.33;;;;;20.77;94.72;102025.97;4976388;28;45702;-82
2023/04/16 06:44:47;;;;;;;;;25.33;20.00;;;;;21.44;88.88;102039.28;4974474;28;45647;-81
2023/04/16 06:47:13;;;;;;;;;27.00;22.33;;;;;21.88;87.45;102016.34;4946856;28;46587;-82
2023/04/16 06:49:39;;;;;;;;;29.00;20.33;;;;;21.97;84.47;102025.97;4982901;28;45454;-82
2023/04/16 06:52:04;;;;;;;;;22.67;21.00;;;;;22.09;83.22;102037.06;4954170;28;45774;-80
2023/04/16 06:54:30;;;;;;;;;22.00;16.67;;;;;21.93;82.32;102030.41;4971547;28;45759;-81
2023/04/16 06:56:56;;;;;;;;;30.33;23.33;;;;;22.11;84.14;102036.81;4971845;28;46694;-80
2023/04/16 06:59:21;;;;;;;;;30.33;25.33;;;;;22.78;83.33;102029.44;4973474;28;45973;-80
2023/04/16 07:01:46;;;;;;;;;24.67;21.00;;;;;23.31;76.27;102039.03;4955421;28;45997;-80
2023/04/16 07:04:12;;;;;;;;;22.33;20.00;;;;;23.69;73.26;102023.16;4970862;28;47220;-82
2023/04/16 07:06:37;;;;;;;;;13.67;12.00;;;;;24.44;72.17;102028.78;4968651;28;45989;-84
2023/04/16 07:09:03;;;;;;;;;25.33;22.00;;;;;24.75;68.92;102026.19;4971097;28;46010;-80
2023/04/16 07:11:29;;;;;;;;;21.00;21.00;;;;;24.91;66.73;102026.25;4971304;28;45742;-82
2023/04/16 07:13:56;;;;;;;;;19.67;17.67;;;;;24.57;65.99;102035.88;4967666;28;45661;-80
2023/04/16 07:16:22;;;;;;;;;15.67;13.00;;;;;24.38;64.25;102035.47;4969270;28;46135;-85
2023/04/16 07:18:47;;;;;;;;;22.00;18.33;;;;;24.23;65.35;102041.00;4950270;28;45357;-81
2023/04/16 07:21:13;;;;;;;;;18.33;16.00;;;;;24.58;65.00;102036.72;4969689;28;45915;-82
2023/04/16 07:23:38;;;;;;;;;19.67;16.33;;;;;24.90;65.02;102033.00;4969369;28;46123;-82
2023/04/16 07:26:03;;;;;;;;;21.33;20.00;;;;;25.42;61.27;102034.84;4977011;28;45824;-82
2023/04/16 07:28:29;;;;;;;;;23.33;19.33;;;;;25.48;60.23;102028.13;4972180;28;45968;-83
2023/04/16 07:30:54;;;;;;;;;20.33;16.33;;;;;25.50;56.71;102039.91;4970109;28;45628;-82
2023/04/16 07:33:20;;;;;;;;;19.00;15.33;;;;;25.35;55.92;102034.28;4973619;28;46208;-81
2023/04/16 07:35:46;;;;;;;;;18.00;15.67;;;;;25.07;56.36;102044.81;4969202;28;45918;-82
2023/04/16 07:38:11;;;;;;;;;16.67;16.33;;;;;24.99;56.94;102036.94;4959358;28;45610;-81
2023/04/16 07:40:37;;;;;;;;;25.00;21.33;;;;;24.63;57.33;102042.41;4975406;28;45524;-82
2023/04/16 07:43:02;;;;;;;;;25.33;21.00;;;;;24.60;57.38;102042.94;4978467;28;45965;-83
2023/04/16 07:45:29;;;;;;;;;18.67;17.67;;;;;24.74;57.77;102037.69;4977235;28;45886;-82
2023/04/16 07:47:55;;;;;;;;;28.33;21.33;;;;;24.66;56.63;102022.22;4959945;28;45794;-83
2023/04/16 07:50:21;;;;;;;;;25.00;21.33;;;;;24.71;57.41;102032.63;4972908;28;45697;-82
2023/04/16 07:52:47;;;;;;;;;19.33;17.33;;;;;24.53;57.34;102028.28;4954097;28;46061;-82
2023/04/16 07:55:13;;;;;;;;;21.33;16.00;;;;;24.27;56.15;102034.56;4982021;28;47075;-83
2023/04/16 07:57:40;;;;;;;;;21.67;15.67;;;;;23.68;55.93;102038.28;4973984;28;45602;-82
2023/04/16 08:00:06;;;;;;;;;17.67;16.00;;;;;22.97;56.38;102049.53;4958076;28;45655;-82
2023/04/16 08:02:32;;;;;;;;;20.33;16.00;;;;;22.27;58.22;102046.28;4974927;28;45984;-81
2023/04/16 08:04:57;;;;;;;;;17.00;17.00;;;;;21.92;59.10;102045.47;4973024;28;45828;-81
2023/04/16 08:07:22;;;;;;;;;18.00;17.00;;;;;21.23;60.41;102032.47;4971759;28;46013;-81
2023/04/16 08:09:50;;;;;;;;;26.33;17.33;;;;;20.95;61.02;102059.25;4972375;28;46171;-80
2023/04/16 08:12:16;;;;;;;;;22.33;14.00;;;;;20.52;61.84;102066.06;4961068;28;46592;-80
2023/04/16 08:14:43;;;;;;;;;16.67;15.67;;;;;20.06;61.80;102063.06;4974801;28;46165;-80
2023/04/16 08:17:09;;;;;;;;;15.33;15.00;;;;;19.61;63.41;102065.44;4978324;28;45942;-82
2023/04/16 08:19:35;;;;;;;;;31.33;21.33;;;;;19.31;65.95;102060.75;4979263;28;45833;-81
2023/04/16 08:22:00;;;;;;;;;20.67;17.00;;;;;19.12;64.95;102068.28;4977020;28;45974;-82
2023/04/16 08:24:26;;;;;;;;;19.00;16.00;;;;;18.78;66.00;102071.44;4970169;28;45590;-80
2023/04/16 08:26:54;;;;;;;;;19.67;18.33;;;;;18.34;66.90;102053.97;4976636;28;45740;-85
2023/04/16 08:29:20;;;;;;;;;21.00;18.00;;;;;18.33;68.86;102066.16;4956698;28;45769;-81
2023/04/16 08:31:46;;;;;;;;;23.67;19.67;;;;;18.23;68.85;102071.38;4981307;28;46032;-83
2023/04/16 08:34:12;;;;;;;;;17.33;15.00;;;;;18.00;69.30;102053.41;4970663;28;46967;-82
2023/04/16 08:36:38;;;;;;;;;21.33;17.67;;;;;18.07;69.31;102078.34;4973806;28;45547;-83
2023/04/16 08:39:04;;;;;;;;;38.00;29.67;;;;;18.08;70.53;102069.78;4975118;28;45746;-82
2023/04/16 08:41:33;;;;;;;;;26.33;19.00;;;;;18.86;69.58;102065.59;4970036;28;45625;-82
2023/04/16 08:44:04;;;;;;;;;23.00;20.00;;;;;20.08;67.80;102072.00;4979112;28;46530;-82
2023/04/16 08:46:32;;;;;;;;;18.67;16.00;;;;;21.37;65.36;102074.03;4981965;28;45559;-83
2023/04/16 08:48:59;;;;;;;;;17.33;14.67;;;;;22.66;63.03;102083.50;4962058;28;45530;-81
2023/04/16 08:51:28;;;;;;;;;20.00;19.00;;;;;23.67;59.82;102063.75;4962135;28;46861;-83
2023/04/16 08:54:01;;;;;;;;;18.00;16.00;;;;;24.90;57.97;102063.84;4962880;28;47183;-84
2023/04/16 08:56:27;;;;;;;;;25.33;23.67;;;;;26.23;54.91;102066.94;4977085;28;46661;-85
2023/04/16 08:58:54;;;;;;;;;89.25;69.00;;;;;27.10;51.94;102042.50;4975019;28;45634;-84
2023/04/16 09:01:20;;;;;;;;;16.00;16.00;;;;;27.93;48.79;102074.63;4978860;28;45778;-83
2023/04/16 09:03:47;;;;;;;;;26.00;23.33;;;;;28.61;47.41;102070.13;4980352;28;46763;-83
2023/04/16 09:06:13;;;;;;;;;19.00;15.67;;;;;29.19;44.64;102073.91;4992659;28;45985;-83
2023/04/16 09:08:40;;;;;;;;;15.25;12.50;;;;;28.18;41.17;102061.50;4983639;28;45824;-83
2023/04/16 09:11:06;;;;;;;;;12.75;11.75;;;;;28.65;42.11;102070.34;4986850;28;46283;-84
2023/04/16 09:13:31;;;;;;;;;12.25;9.50;;;;;29.38;41.46;102063.47;4991672;28;45819;-82
2023/04/16 09:15:57;;;;;;;;;21.00;15.33;;;;;30.52;40.87;102065.28;4964085;28;45390;-84
2023/04/16 09:18:23;;;;;;;;;11.75;10.25;;;;;31.10;38.00;102063.84;4977791;28;45376;-85
2023/04/16 09:20:50;;;;;;;;;20.50;12.25;;;;;31.68;37.22;102067.91;4979296;28;45465;-82
2023/04/16 09:23:16;;;;;;;;;14.50;12.50;;;;;31.89;35.81;102066.53;4980475;28;46573;-84
2023/04/16 09:25:42;;;;;;;;;12.25;11.25;;;;;32.05;35.29;102067.81;4960244;28;45552;-82
2023/04/16 09:28:08;;;;;;;;;15.25;13.25;;;;;31.66;34.42;102063.72;4975070;28;45562;-84
2023/04/16 09:30:35;;;;;;;;;13.00;12.00;;;;;30.98;34.64;102053.03;4975363;28;45766;-83
2023/04/16 09:33:20;;;;;;;;;16.25;11.00;;;;;30.55;33.83;102049.66;4976191;28;45442;-83
2023/04/16 09:35:48;;;;;;;;;15.75;14.75;;;;;30.16;35.42;102063.09;4956676;28;45505;-81
2023/04/16 09:38:14;;;;;;;;;16.25;12.50;;;;;30.16;35.21;102048.13;4970978;28;45856;-81
2023/04/16 09:40:40;;;;;;;;;14.25;13.25;;;;;29.47;34.89;102063.63;4975042;28;45509;-83
2023/04/16 09:43:13;;;;;;;;;15.25;11.50;;;;;27.86;35.53;102074.16;4970325;28;47289;-80
2023/04/16 09:45:53;;;;;;;;;16.25;13.00;;;;;26.12;36.72;102064.41;4977830;28;45582;-82
2023/04/16 09:48:32;;;;;;;;;15.00;12.50;;;;;25.30;38.22;102080.03;4968505;28;45943;-83
2023/04/16 09:50:59;;;;;;;;;10.33;8.00;;;;;24.82;38.60;102082.91;4974921;28;45956;-79
2023/04/16 09:53:26;;;;;;;;;17.75;11.75;;;;;25.40;39.42;102086.78;4980958;28;45749;-81
2023/04/16 09:56:04;;;;;;;;;11.25;10.75;;;;;25.67;38.94;102083.75;4955721;28;45671;-79
2023/04/16 09:58:30;;;;;;;;;14.00;10.50;;;;;25.49;39.64;102080.34;4974420;28;45468;-79
2023/04/16 10:01:05;;;;;;;;;19.00;15.33;;;;;25.80;39.61;102088.84;4966892;28;45782;-80
2023/04/16 10:03:32;;;;;;;;;15.67;13.00;;;;;26.41;40.12;102092.81;4973051;28;46457;-78
2023/04/16 10:06:19;;;;;;;;;12.50;12.50;;;;;26.76;38.58;102082.63;4985769;28;45615;-77
2023/04/16 10:08:51;;;;;;;;;16.00;13.50;;;;;26.35;37.81;102091.97;4974171;28;45448;-79
2023/04/16 10:11:19;;;;;;;;;13.75;12.50;;;;;26.66;39.83;102072.19;4978197;28;46560;-78
2023/04/16 10:13:45;;;;;;;;;23.33;21.67;;;;;27.72;38.60;102082.41;4973017;28;46184;-80
2023/04/16 10:16:10;;;;;;;;;20.50;15.25;;;;;28.55;37.76;102071.28;4973344;28;45645;-79
2023/04/16 10:18:41;;;;;;;;;10.75;10.25;;;;;28.71;37.09;102066.31;4977057;28;45769;-80
2023/04/16 10:21:06;;;;;;;;;19.00;14.00;;;;;28.18;36.32;102061.50;4973249;28;45812;-78
2023/04/16 10:23:33;;;;;;;;;14.75;12.50;;;;;28.39;36.86;102072.59;4988895;28;45460;-79
2023/04/16 10:26:00;;;;;;;;;14.75;12.25;;;;;28.34;36.66;102079.94;4974213;28;45879;-80
2023/04/16 10:28:27;;;;;;;;;9.00;8.00;;;;;27.65;36.22;102082.75;4976220;28;45655;-81
2023/04/16 10:30:57;;;;;;;;;11.50;11.25;;;;;26.58;36.87;102082.06;4972187;28;45549;-83
2023/04/16 10:33:27;;;;;;;;;8.75;8.75;;;;;25.94;37.78;102079.84;4980252;28;45475;-79
2023/04/16 10:36:29;;;;;;;;;11.25;9.00;;;;;25.52;37.71;102065.78;4974399;28;45843;-80
2023/04/16 10:38:59;;;;;;;;;16.25;11.25;;;;;24.43;38.76;102072.00;4973719;28;45874;-82
2023/04/16 10:41:25;;;;;;;;;7.00;7.00;;;;;24.61;39.81;102078.28;4981120;28;45592;-83
2023/04/16 10:43:51;;;;;;;;;13.00;9.50;;;;;25.08;39.41;102054.94;4952456;28;47283;-81
2023/04/16 10:46:17;;;;;;;;;7.25;7.25;;;;;25.34;39.43;102077.50;4976383;28;45871;-81
2023/04/16 10:48:42;;;;;;;;;11.67;11.67;;;;;24.96;39.83;102069.22;4965316;28;45614;-82
2023/04/16 10:51:23;;;;;;;;;9.75;8.25;;;;;24.46;39.70;102077.06;4977212;28;45535;-82
2023/04/16 10:53:48;;;;;;;;;10.00;8.50;;;;;24.18;40.05;102064.25;4964216;28;45567;-82
2023/04/16 10:56:14;;;;;;;;;9.75;7.25;;;;;23.61;39.71;102086.13;4974118;28;45766;-82
2023/04/16 10:58:40;;;;;;;;;6.25;5.75;;;;;23.41;39.12;102075.56;4960106;28;45482;-82
2023/04/16 11:01:11;;;;;;;;;8.50;7.25;;;;;23.27;39.46;102065.88;4957113;28;45857;-83
2023/04/16 11:03:41;;;;;;;;;7.75;7.75;;;;;23.22;40.19;102060.22;4953734;28;47200;-83
2023/04/16 11:06:16;;;;;;;;;13.00;11.75;;;;;22.75;40.44;102064.34;4976716;28;45761;-85
2023/04/16 11:08:44;;;;;;;;;13.00;12.33;;;;;22.84;42.44;102073.13;4955383;28;45766;-79